Portada
METAR-TAF:

METAR-TAF

Aeroports :

Kununurra, Austràlia

latitud: 15-46S, longitud: 128-42E, altitud: 44 m

Observació

L'informe es va fer fa 22 minuts, a les 19:47 UTC
Vent calma
Temperatura 24°C
Humitat 78%
Pressió 1010 hPa
Visibilitat 10 km o més

METAR: YPKU 131947Z AUTO 00000KT 9999 // NCD 24/20 Q1010 RF00.0////./

Hora: 04:09 (20:09 UTC)

Pronòstic

L'informe es va fer fa 39 minuts, a les 19:30 UTC
Pronòstic vàlid del 13 a les 20 UTC al 14 a les 08 UTC
Vent 3 kt amb direcció variable
Visibilitat 10 km o més
sense núvols per sota de 1500 mi sense presència de cumulonimbus.
A partir de les 14 a les 0000 UTC
Vent 10 kt del Est
Visibilitat 10 km o més
sense núvols per sota de 1500 mi sense presència de cumulonimbus.

TAF: YPKU 131930Z 1320/1408 VRB03KT CAVOK FM140000 09010KT CAVOK

Observacions i pronòstics meteorològics de més de 4000 aeroports (METAR i TAF).

Les estacions disponibles són els punts grocs i vermells al mapa.

Posi el ratolí al punt desitjat per veure el nom de l'estació.

Feu clic per veure les observacions i els pronòstics meteorològics.

Per canviar el mapa: feu clic els botons verds amb una creu de color negre per apropar; al botó verd amb un guió per allunyar la imatge; o en les fletxes verdes per a mapes adjacents.


METAR-TAF: